sensor_id;sensor_type;location;lat;lon;timestamp;pressure;altitude;pressure_sealevel;temperature;humidity
51829;BME280;37881;48.024;8.774;2024-03-23T00:55:05;93369.94;;;5.17;100.00
51829;BME280;37881;48.024;8.774;2024-03-23T00:57:51;93376.25;;;5.03;100.00
51829;BME280;37881;48.024;8.774;2024-03-23T01:00:37;93372.31;;;5.11;100.00
51829;BME280;37881;48.024;8.774;2024-03-23T01:03:23;93366.47;;;5.13;100.00
51829;BME280;37881;48.024;8.774;2024-03-23T01:06:09;93358.75;;;5.04;100.00
51829;BME280;37881;48.024;8.774;2024-03-23T01:08:54;93352.13;;;5.09;100.00
51829;BME280;37881;48.024;8.774;2024-03-23T01:11:40;93356.78;;;5.08;100.00
51829;BME280;37881;48.024;8.774;2024-03-23T01:14:26;93352.50;;;5.11;100.00
51829;BME280;37881;48.024;8.774;2024-03-23T01:17:12;93366.47;;;5.13;100.00
51829;BME280;37881;48.024;8.774;2024-03-23T01:19:58;93344.72;;;5.13;100.00
51829;BME280;37881;48.024;8.774;2024-03-23T01:22:44;93344.31;;;5.25;100.00
51829;BME280;37881;48.024;8.774;2024-03-23T01:25:30;93348.53;;;5.30;100.00
51829;BME280;37881;48.024;8.774;2024-03-23T01:28:16;93337.66;;;5.33;100.00
51829;BME280;37881;48.024;8.774;2024-03-23T01:31:02;93340.41;;;5.26;100.00
51829;BME280;37881;48.024;8.774;2024-03-23T01:33:48;93334.72;;;4.85;100.00
51829;BME280;37881;48.024;8.774;2024-03-23T01:36:34;93333.50;;;4.96;100.00
51829;BME280;37881;48.024;8.774;2024-03-23T01:39:20;93320.28;;;5.06;100.00
51829;BME280;37881;48.024;8.774;2024-03-23T01:42:06;93313.66;;;5.10;100.00
51829;BME280;37881;48.024;8.774;2024-03-23T01:44:52;93309.72;;;5.15;100.00
51829;BME280;37881;48.024;8.774;2024-03-23T01:47:38;93308.19;;;5.14;100.00
51829;BME280;37881;48.024;8.774;2024-03-23T01:50:24;93308.19;;;5.14;100.00
51829;BME280;37881;48.024;8.774;2024-03-23T01:53:10;93302.00;;;5.10;100.00
51829;BME280;37881;48.024;8.774;2024-03-23T01:55:56;93298.50;;;5.09;100.00
51829;BME280;37881;48.024;8.774;2024-03-23T01:58:42;93297.72;;;5.09;100.00
51829;BME280;37881;48.024;8.774;2024-03-23T02:01:29;93283.31;;;5.15;100.00
51829;BME280;37881;48.024;8.774;2024-03-23T02:04:15;93281.38;;;5.19;100.00
51829;BME280;37881;48.024;8.774;2024-03-23T02:07:01;93273.22;;;5.12;100.00
51829;BME280;37881;48.024;8.774;2024-03-23T02:09:47;93277.59;;;4.99;100.00
51829;BME280;37881;48.024;8.774;2024-03-23T02:12:33;93263.63;;;4.93;100.00
51829;BME280;37881;48.024;8.774;2024-03-23T02:15:20;93258.50;;;5.03;100.00
51829;BME280;37881;48.024;8.774;2024-03-23T02:18:07;93241.41;;;5.06;100.00
51829;BME280;37881;48.024;8.774;2024-03-23T02:20:53;93256.53;;;5.07;100.00
51829;BME280;37881;48.024;8.774;2024-03-23T02:23:39;93239.84;;;5.05;100.00
51829;BME280;37881;48.024;8.774;2024-03-23T02:26:25;93233.66;;;5.00;100.00
51829;BME280;37881;48.024;8.774;2024-03-23T02:29:11;93237.94;;;5.05;100.00
51829;BME280;37881;48.024;8.774;2024-03-23T02:31:57;93221.63;;;5.02;100.00
51829;BME280;37881;48.024;8.774;2024-03-23T02:34:44;93231.31;;;5.06;100.00
51829;BME280;37881;48.024;8.774;2024-03-23T02:37:30;93217.31;;;5.08;100.00
51829;BME280;37881;48.024;8.774;2024-03-23T02:40:16;93209.91;;;5.08;100.00
51829;BME280;37881;48.024;8.774;2024-03-23T02:43:03;93207.53;;;5.17;100.00
51829;BME280;37881;48.024;8.774;2024-03-23T02:45:49;93217.59;;;5.24;100.00
51829;BME280;37881;48.024;8.774;2024-03-23T02:48:35;93213.63;;;5.36;100.00
51829;BME280;37881;48.024;8.774;2024-03-23T02:51:21;93209.41;;;5.28;100.00
51829;BME280;37881;48.024;8.774;2024-03-23T02:54:07;93209.44;;;5.24;100.00
51829;BME280;37881;48.024;8.774;2024-03-23T02:56:53;93205.75;;;5.52;100.00
51829;BME280;37881;48.024;8.774;2024-03-23T02:59:39;93202.78;;;5.81;100.00
51829;BME280;37881;48.024;8.774;2024-03-23T03:02:25;93191.72;;;6.40;100.00
51829;BME280;37881;48.024;8.774;2024-03-23T03:05:11;93194.50;;;6.68;100.00
51829;BME280;37881;48.024;8.774;2024-03-23T03:07:58;93204.50;;;6.78;100.00
51829;BME280;37881;48.024;8.774;2024-03-23T03:10:44;93204.47;;;6.82;100.00
51829;BME280;37881;48.024;8.774;2024-03-23T03:13:30;93208.56;;;6.97;100.00
51829;BME280;37881;48.024;8.774;2024-03-23T03:16:16;93200.97;;;7.12;100.00
51829;BME280;37881;48.024;8.774;2024-03-23T03:19:02;93189.66;;;7.13;100.00
51829;BME280;37881;48.024;8.774;2024-03-23T03:21:48;93184.03;;;7.24;100.00
51829;BME280;37881;48.024;8.774;2024-03-23T03:24:33;93177.28;;;7.32;100.00
51829;BME280;37881;48.024;8.774;2024-03-23T03:27:19;93176.91;;;7.30;100.00
51829;BME280;37881;48.024;8.774;2024-03-23T03:30:06;93176.50;;;7.59;100.00
51829;BME280;37881;48.024;8.774;2024-03-23T03:32:54;93175.84;;;7.51;100.00
51829;BME280;37881;48.024;8.774;2024-03-23T03:35:40;93169.47;;;7.58;100.00
51829;BME280;37881;48.024;8.774;2024-03-23T03:38:26;93172.38;;;7.47;100.00
51829;BME280;37881;48.024;8.774;2024-03-23T03:41:12;93160.81;;;7.39;100.00
51829;BME280;37881;48.024;8.774;2024-03-23T03:43:58;93159.53;;;7.20;100.00
51829;BME280;37881;48.024;8.774;2024-03-23T03:46:47;93160.09;;;7.08;100.00
51829;BME280;37881;48.024;8.774;2024-03-23T03:49:34;93158.59;;;7.04;100.00
51829;BME280;37881;48.024;8.774;2024-03-23T03:52:19;93141.56;;;6.96;100.00
51829;BME280;37881;48.024;8.774;2024-03-23T03:55:12;93141.25;;;6.90;100.00
51829;BME280;37881;48.024;8.774;2024-03-23T03:57:58;93133.97;;;6.80;100.00
51829;BME280;37881;48.024;8.774;2024-03-23T04:00:44;93129.34;;;6.77;100.00
51829;BME280;37881;48.024;8.774;2024-03-23T04:03:30;93114.84;;;6.84;100.00
51829;BME280;37881;48.024;8.774;2024-03-23T04:06:19;93111.38;;;6.79;100.00
51829;BME280;37881;48.024;8.774;2024-03-23T04:09:05;93109.91;;;6.75;100.00
51829;BME280;37881;48.024;8.774;2024-03-23T04:11:52;93106.91;;;6.66;100.00
51829;BME280;37881;48.024;8.774;2024-03-23T04:14:38;93098.47;;;6.56;100.00
51829;BME280;37881;48.024;8.774;2024-03-23T04:17:24;93089.38;;;6.67;100.00
51829;BME280;37881;48.024;8.774;2024-03-23T04:20:11;93078.47;;;6.67;100.00
51829;BME280;37881;48.024;8.774;2024-03-23T04:22:59;93074.13;;;6.69;100.00
51829;BME280;37881;48.024;8.774;2024-03-23T04:25:45;93060.19;;;6.64;100.00
51829;BME280;37881;48.024;8.774;2024-03-23T04:28:31;93045.19;;;6.79;100.00
51829;BME280;37881;48.024;8.774;2024-03-23T04:31:17;93053.81;;;6.74;100.00
51829;BME280;37881;48.024;8.774;2024-03-23T04:34:03;93048.56;;;6.87;100.00
51829;BME280;37881;48.024;8.774;2024-03-23T04:36:49;93041.47;;;6.93;100.00
51829;BME280;37881;48.024;8.774;2024-03-23T04:39:38;93047.88;;;7.06;100.00
51829;BME280;37881;48.024;8.774;2024-03-23T04:42:24;93037.72;;;7.30;100.00
51829;BME280;37881;48.024;8.774;2024-03-23T04:45:10;93047.34;;;7.82;100.00
51829;BME280;37881;48.024;8.774;2024-03-23T04:47:56;93040.53;;;8.87;100.00
51829;BME280;37881;48.024;8.774;2024-03-23T04:50:42;93026.84;;;9.36;100.00
51829;BME280;37881;48.024;8.774;2024-03-23T04:53:28;93029.78;;;9.74;100.00
51829;BME280;37881;48.024;8.774;2024-03-23T04:56:15;93020.75;;;9.90;100.00
51829;BME280;37881;48.024;8.774;2024-03-23T04:59:01;93013.28;;;9.91;100.00
51829;BME280;37881;48.024;8.774;2024-03-23T05:01:47;93027.47;;;10.02;100.00
51829;BME280;37881;48.024;8.774;2024-03-23T05:04:33;93013.59;;;10.22;100.00
51829;BME280;37881;48.024;8.774;2024-03-23T05:07:19;93048.47;;;10.22;100.00
51829;BME280;37881;48.024;8.774;2024-03-23T05:10:05;93042.41;;;10.14;100.00
51829;BME280;37881;48.024;8.774;2024-03-23T05:12:55;93069.69;;;10.05;100.00
51829;BME280;37881;48.024;8.774;2024-03-23T05:15:41;93038.66;;;10.08;100.00
51829;BME280;37881;48.024;8.774;2024-03-23T05:18:27;93046.44;;;9.96;100.00
51829;BME280;37881;48.024;8.774;2024-03-23T05:21:14;93055.03;;;9.82;100.00
51829;BME280;37881;48.024;8.774;2024-03-23T05:24:00;93061.09;;;9.73;100.00
51829;BME280;37881;48.024;8.774;2024-03-23T05:26:46;93044.75;;;9.70;100.00
51829;BME280;37881;48.024;8.774;2024-03-23T05:29:32;93057.22;;;9.58;100.00
51829;BME280;37881;48.024;8.774;2024-03-23T05:32:18;93061.22;;;9.53;100.00
51829;BME280;37881;48.024;8.774;2024-03-23T05:35:04;93066.34;;;9.51;100.00
51829;BME280;37881;48.024;8.774;2024-03-23T05:37:50;93051.56;;;9.49;100.00
51829;BME280;37881;48.024;8.774;2024-03-23T05:40:36;93063.91;;;9.40;100.00
51829;BME280;37881;48.024;8.774;2024-03-23T05:43:23;93065.88;;;9.40;100.00
51829;BME280;37881;48.024;8.774;2024-03-23T05:46:09;93049.59;;;9.33;100.00
51829;BME280;37881;48.024;8.774;2024-03-23T05:49:01;93048.41;;;9.34;100.00
51829;BME280;37881;48.024;8.774;2024-03-23T05:51:47;93044.03;;;9.36;100.00
51829;BME280;37881;48.024;8.774;2024-03-23T05:54:33;93060.06;;;9.38;100.00
51829;BME280;37881;48.024;8.774;2024-03-23T05:57:19;93059.25;;;9.37;100.00
51829;BME280;37881;48.024;8.774;2024-03-23T06:00:06;93050.81;;;9.32;100.00
51829;BME280;37881;48.024;8.774;2024-03-23T06:02:56;93063.63;;;9.35;100.00
51829;BME280;37881;48.024;8.774;2024-03-23T06:05:42;93076.47;;;9.38;100.00
51829;BME280;37881;48.024;8.774;2024-03-23T06:08:28;93076.47;;;9.38;100.00
51829;BME280;37881;48.024;8.774;2024-03-23T06:11:14;93074.59;;;9.35;100.00
51829;BME280;37881;48.024;8.774;2024-03-23T06:14:00;93085.72;;;9.28;100.00
51829;BME280;37881;48.024;8.774;2024-03-23T06:16:46;93072.47;;;9.26;100.00
51829;BME280;37881;48.024;8.774;2024-03-23T06:19:32;93100.94;;;9.45;100.00
51829;BME280;37881;48.024;8.774;2024-03-23T06:22:18;93099.50;;;9.24;100.00
51829;BME280;37881;48.024;8.774;2024-03-23T06:25:04;93104.56;;;8.53;100.00
51829;BME280;37881;48.024;8.774;2024-03-23T06:27:50;93106.38;;;8.39;100.00
51829;BME280;37881;48.024;8.774;2024-03-23T06:30:36;93102.34;;;8.04;100.00
51829;BME280;37881;48.024;8.774;2024-03-23T06:33:22;93111.06;;;7.99;100.00
51829;BME280;37881;48.024;8.774;2024-03-23T06:36:11;93125.25;;;7.90;100.00
51829;BME280;37881;48.024;8.774;2024-03-23T06:38:57;93145.78;;;7.98;100.00
51829;BME280;37881;48.024;8.774;2024-03-23T06:41:52;93158.03;;;7.67;100.00
51829;BME280;37881;48.024;8.774;2024-03-23T06:44:38;93160.84;;;7.63;100.00
51829;BME280;37881;48.024;8.774;2024-03-23T06:47:25;93181.84;;;7.90;100.00
51829;BME280;37881;48.024;8.774;2024-03-23T06:50:11;93169.31;;;7.69;100.00
51829;BME280;37881;48.024;8.774;2024-03-23T06:52:57;93178.16;;;7.76;100.00
51829;BME280;37881;48.024;8.774;2024-03-23T06:55:50;93196.63;;;7.92;100.00
51829;BME280;37881;48.024;8.774;2024-03-23T06:58:36;93185.59;;;7.76;100.00
51829;BME280;37881;48.024;8.774;2024-03-23T07:01:22;93206.66;;;7.75;100.00
51829;BME280;37881;48.024;8.774;2024-03-23T07:04:07;93208.84;;;7.33;100.00
51829;BME280;37881;48.024;8.774;2024-03-23T07:06:53;93214.38;;;7.30;100.00
51829;BME280;37881;48.024;8.774;2024-03-23T07:09:39;93224.09;;;7.31;100.00
51829;BME280;37881;48.024;8.774;2024-03-23T07:12:25;93236.19;;;7.30;100.00
51829;BME280;37881;48.024;8.774;2024-03-23T07:15:11;93253.34;;;7.30;100.00
51829;BME280;37881;48.024;8.774;2024-03-23T07:17:57;93251.44;;;7.27;100.00
51829;BME280;37881;48.024;8.774;2024-03-23T07:20:52;93273.28;;;7.27;100.00
51829;BME280;37881;48.024;8.774;2024-03-23T07:23:38;93268.72;;;7.17;100.00
51829;BME280;37881;48.024;8.774;2024-03-23T07:26:24;93265.66;;;6.80;100.00
51829;BME280;37881;48.024;8.774;2024-03-23T07:29:10;93271.19;;;7.08;100.00
51829;BME280;37881;48.024;8.774;2024-03-23T07:31:56;93291.63;;;7.27;100.00
51829;BME280;37881;48.024;8.774;2024-03-23T07:34:42;93295.06;;;7.31;100.00
51829;BME280;37881;48.024;8.774;2024-03-23T07:37:30;93297.69;;;7.38;100.00
51829;BME280;37881;48.024;8.774;2024-03-23T07:40:16;93312.13;;;7.38;100.00
51829;BME280;37881;48.024;8.774;2024-03-23T07:43:02;93302.09;;;7.28;100.00
51829;BME280;37881;48.024;8.774;2024-03-23T07:45:52;93315.44;;;7.23;100.00
51829;BME280;37881;48.024;8.774;2024-03-23T07:48:39;93319.09;;;7.12;100.00
51829;BME280;37881;48.024;8.774;2024-03-23T07:51:26;93321.34;;;7.17;100.00
51829;BME280;37881;48.024;8.774;2024-03-23T07:54:12;93312.63;;;6.95;100.00
51829;BME280;37881;48.024;8.774;2024-03-23T07:56:57;93340.19;;;6.70;100.00
51829;BME280;37881;48.024;8.774;2024-03-23T07:59:43;93332.31;;;6.76;100.00
51829;BME280;37881;48.024;8.774;2024-03-23T08:02:29;93342.97;;;6.63;100.00
51829;BME280;37881;48.024;8.774;2024-03-23T08:05:15;93357.03;;;6.96;100.00
51829;BME280;37881;48.024;8.774;2024-03-23T08:08:01;93364.47;;;7.91;100.00
51829;BME280;37881;48.024;8.774;2024-03-23T08:10:51;93371.81;;;7.67;100.00
51829;BME280;37881;48.024;8.774;2024-03-23T08:13:41;93374.00;;;6.76;100.00
51829;BME280;37881;48.024;8.774;2024-03-23T08:16:28;93389.75;;;7.37;100.00
51829;BME280;37881;48.024;8.774;2024-03-23T08:19:14;93407.06;;;7.20;100.00
51829;BME280;37881;48.024;8.774;2024-03-23T08:22:00;93421.31;;;7.00;100.00
51829;BME280;37881;48.024;8.774;2024-03-23T08:24:47;93438.88;;;6.96;100.00
51829;BME280;37881;48.024;8.774;2024-03-23T08:27:33;93440.47;;;6.93;100.00
51829;BME280;37881;48.024;8.774;2024-03-23T08:30:19;93449.56;;;6.79;100.00
51829;BME280;37881;48.024;8.774;2024-03-23T08:33:05;93467.00;;;6.37;100.00
51829;BME280;37881;48.024;8.774;2024-03-23T08:35:56;93466.88;;;6.58;100.00
51829;BME280;37881;48.024;8.774;2024-03-23T08:38:42;93455.88;;;6.69;100.00
51829;BME280;37881;48.024;8.774;2024-03-23T08:41:28;93469.34;;;6.91;100.00
51829;BME280;37881;48.024;8.774;2024-03-23T08:44:14;93465.84;;;7.32;100.00
51829;BME280;37881;48.024;8.774;2024-03-23T08:47:00;93484.63;;;7.60;100.00
51829;BME280;37881;48.024;8.774;2024-03-23T08:49:46;93493.13;;;7.70;100.00
51829;BME280;37881;48.024;8.774;2024-03-23T08:52:33;93486.00;;;7.42;100.00
51829;BME280;37881;48.024;8.774;2024-03-23T08:55:19;93515.59;;;7.05;100.00
51829;BME280;37881;48.024;8.774;2024-03-23T08:58:04;93507.50;;;9.20;100.00
51829;BME280;37881;48.024;8.774;2024-03-23T09:00:55;93514.19;;;9.39;100.00
51829;BME280;37881;48.024;8.774;2024-03-23T09:03:44;93502.16;;;9.57;100.00
51829;BME280;37881;48.024;8.774;2024-03-23T09:06:31;93493.88;;;9.60;100.00
51829;BME280;37881;48.024;8.774;2024-03-23T09:09:17;93489.34;;;8.56;100.00
51829;BME280;37881;48.024;8.774;2024-03-23T09:12:03;93492.72;;;8.06;100.00
51829;BME280;37881;48.024;8.774;2024-03-23T09:14:50;93490.84;;;7.65;100.00
51829;BME280;37881;48.024;8.774;2024-03-23T09:17:36;93485.56;;;9.44;100.00
51829;BME280;37881;48.024;8.774;2024-03-23T09:20:22;93489.09;;;11.76;91.79
51829;BME280;37881;48.024;8.774;2024-03-23T09:23:08;93477.91;;;15.17;65.23
51829;BME280;37881;48.024;8.774;2024-03-23T09:25:54;93469.63;;;15.76;57.57
51829;BME280;37881;48.024;8.774;2024-03-23T09:28:41;93471.66;;;15.26;55.70
51829;BME280;37881;48.024;8.774;2024-03-23T09:31:27;93467.69;;;13.89;61.97
51829;BME280;37881;48.024;8.774;2024-03-23T09:34:13;93464.88;;;12.42;73.24
51829;BME280;37881;48.024;8.774;2024-03-23T09:36:58;93470.09;;;13.65;64.32
51829;BME280;37881;48.024;8.774;2024-03-23T09:39:44;93463.53;;;16.61;51.68
51829;BME280;37881;48.024;8.774;2024-03-23T09:42:30;93449.88;;;14.34;48.74
51829;BME280;37881;48.024;8.774;2024-03-23T09:45:26;93481.91;;;15.75;49.07
51829;BME280;37881;48.024;8.774;2024-03-23T09:48:12;93484.34;;;18.97;41.45
51829;BME280;37881;48.024;8.774;2024-03-23T09:50:58;93476.91;;;18.34;38.19
51829;BME280;37881;48.024;8.774;2024-03-23T09:53:44;93495.72;;;15.16;43.74
51829;BME280;37881;48.024;8.774;2024-03-23T09:56:31;93474.78;;;14.65;44.40
51829;BME280;37881;48.024;8.774;2024-03-23T09:59:17;93452.78;;;12.91;47.23
51829;BME280;37881;48.024;8.774;2024-03-23T10:02:03;93493.66;;;15.48;45.32
51829;BME280;37881;48.024;8.774;2024-03-23T10:04:49;93481.28;;;14.27;45.17
51829;BME280;37881;48.024;8.774;2024-03-23T10:07:36;93466.72;;;16.87;41.17
51829;BME280;37881;48.024;8.774;2024-03-23T10:10:21;93464.09;;;17.74;39.32
51829;BME280;37881;48.024;8.774;2024-03-23T10:13:08;93468.44;;;18.98;37.80
51829;BME280;37881;48.024;8.774;2024-03-23T10:15:58;93485.31;;;18.79;37.14
51829;BME280;37881;48.024;8.774;2024-03-23T10:18:44;93465.84;;;18.79;34.99
51829;BME280;37881;48.024;8.774;2024-03-23T10:21:30;93470.09;;;15.84;38.41
51829;BME280;37881;48.024;8.774;2024-03-23T10:24:16;93460.09;;;17.51;36.83
51829;BME280;37881;48.024;8.774;2024-03-23T10:27:02;93485.03;;;15.27;41.35
51829;BME280;37881;48.024;8.774;2024-03-23T10:29:49;93459.41;;;15.54;40.42
51829;BME280;37881;48.024;8.774;2024-03-23T10:32:35;93462.78;;;17.36;37.33
51829;BME280;37881;48.024;8.774;2024-03-23T10:35:21;93466.97;;;16.46;38.91
51829;BME280;37881;48.024;8.774;2024-03-23T10:38:08;93478.44;;;15.43;40.88
51829;BME280;37881;48.024;8.774;2024-03-23T10:40:54;93473.47;;;15.20;41.96
51829;BME280;37881;48.024;8.774;2024-03-23T10:43:42;93461.94;;;15.98;38.32
51829;BME280;37881;48.024;8.774;2024-03-23T10:46:28;93476.22;;;16.34;37.00
51829;BME280;37881;48.024;8.774;2024-03-23T10:49:14;93467.63;;;16.93;36.94
51829;BME280;37881;48.024;8.774;2024-03-23T10:52:04;93462.66;;;18.56;35.41
51829;BME280;37881;48.024;8.774;2024-03-23T10:54:51;93470.47;;;15.54;38.98
51829;BME280;37881;48.024;8.774;2024-03-23T10:57:41;93465.59;;;15.77;39.97
51829;BME280;37881;48.024;8.774;2024-03-23T11:00:30;93458.22;;;16.02;39.31
51829;BME280;37881;48.024;8.774;2024-03-23T11:03:36;93466.00;;;16.49;39.43
51829;BME280;37881;48.024;8.774;2024-03-23T11:06:39;93466.81;;;18.76;37.17
51829;BME280;37881;48.024;8.774;2024-03-23T11:15:11;93448.69;;;18.66;35.00
51829;BME280;37881;48.024;8.774;2024-03-23T11:18:05;93462.81;;;17.60;36.80
51829;BME280;37881;48.024;8.774;2024-03-23T11:20:53;93460.13;;;16.66;37.22
51829;BME280;37881;48.024;8.774;2024-03-23T11:23:39;93466.66;;;17.39;37.80
51829;BME280;37881;48.024;8.774;2024-03-23T11:26:25;93458.03;;;17.03;36.93
51829;BME280;37881;48.024;8.774;2024-03-23T11:29:12;93475.44;;;15.19;42.03
51829;BME280;37881;48.024;8.774;2024-03-23T11:31:58;93486.94;;;14.24;44.46
51829;BME280;37881;48.024;8.774;2024-03-23T11:34:44;93494.25;;;13.95;48.11
51829;BME280;37881;48.024;8.774;2024-03-23T11:37:31;93513.25;;;12.69;75.58
51829;BME280;37881;48.024;8.774;2024-03-23T11:40:18;93518.75;;;13.07;77.57
51829;BME280;37881;48.024;8.774;2024-03-23T11:43:06;93536.78;;;12.57;75.91
51829;BME280;37881;48.024;8.774;2024-03-23T11:45:52;93530.59;;;12.11;75.06
51829;BME280;37881;48.024;8.774;2024-03-23T11:48:49;93548.03;;;9.96;100.00
51829;BME280;37881;48.024;8.774;2024-03-23T11:51:35;93565.22;;;8.48;100.00
51829;BME280;37881;48.024;8.774;2024-03-23T11:54:22;93591.94;;;8.68;100.00
51829;BME280;37881;48.024;8.774;2024-03-23T11:57:09;93596.44;;;7.37;100.00
51829;BME280;37881;48.024;8.774;2024-03-23T11:59:55;93613.81;;;7.05;100.00
51829;BME280;37881;48.024;8.774;2024-03-23T12:02:41;93615.66;;;7.23;100.00
51829;BME280;37881;48.024;8.774;2024-03-23T12:05:27;93613.63;;;6.71;100.00
51829;BME280;37881;48.024;8.774;2024-03-23T12:11:06;93606.09;;;6.96;100.00
51829;BME280;37881;48.024;8.774;2024-03-23T12:13:52;93623.56;;;7.96;100.00
51829;BME280;37881;48.024;8.774;2024-03-23T12:16:38;93611.09;;;8.33;100.00
51829;BME280;37881;48.024;8.774;2024-03-23T12:19:24;93607.25;;;8.27;100.00
51829;BME280;37881;48.024;8.774;2024-03-23T12:22:10;93597.69;;;8.08;100.00
51829;BME280;37881;48.024;8.774;2024-03-23T12:24:56;93600.06;;;9.53;100.00
51829;BME280;37881;48.024;8.774;2024-03-23T12:27:42;93586.44;;;7.65;100.00
51829;BME280;37881;48.024;8.774;2024-03-23T12:30:28;93587.78;;;9.14;100.00
51829;BME280;37881;48.024;8.774;2024-03-23T12:33:14;93566.19;;;9.43;100.00
51829;BME280;37881;48.024;8.774;2024-03-23T12:36:00;93576.66;;;8.05;100.00
51829;BME280;37881;48.024;8.774;2024-03-23T12:38:46;93579.19;;;7.89;100.00
51829;BME280;37881;48.024;8.774;2024-03-23T12:41:32;93564.81;;;7.81;100.00
51829;BME280;37881;48.024;8.774;2024-03-23T12:44:19;93572.50;;;7.93;100.00
51829;BME280;37881;48.024;8.774;2024-03-23T12:47:05;93568.31;;;8.50;100.00
51829;BME280;37881;48.024;8.774;2024-03-23T12:49:51;93559.56;;;8.63;99.17
51829;BME280;37881;48.024;8.774;2024-03-23T12:52:37;93541.97;;;9.18;98.72
51829;BME280;37881;48.024;8.774;2024-03-23T12:55:23;93546.84;;;9.30;100.00
51829;BME280;37881;48.024;8.774;2024-03-23T12:58:09;93536.72;;;9.51;90.80
51829;BME280;37881;48.024;8.774;2024-03-23T13:00:58;93520.25;;;10.54;89.12
51829;BME280;37881;48.024;8.774;2024-03-23T13:03:46;93520.63;;;10.56;93.63
51829;BME280;37881;48.024;8.774;2024-03-23T13:06:32;93521.47;;;10.33;87.88
51829;BME280;37881;48.024;8.774;2024-03-23T13:09:19;93508.97;;;10.69;83.21
51829;BME280;37881;48.024;8.774;2024-03-23T13:12:06;93504.34;;;9.66;89.71
51829;BME280;37881;48.024;8.774;2024-03-23T13:14:52;93513.91;;;9.77;90.33
51829;BME280;37881;48.024;8.774;2024-03-23T13:17:38;93516.38;;;9.72;84.62
51829;BME280;37881;48.024;8.774;2024-03-23T13:20:24;93502.00;;;9.20;80.23
51829;BME280;37881;48.024;8.774;2024-03-23T13:23:10;93514.38;;;9.29;79.75
51829;BME280;37881;48.024;8.774;2024-03-23T13:25:55;93509.22;;;9.34;78.36
51829;BME280;37881;48.024;8.774;2024-03-23T13:28:41;93513.72;;;9.68;75.97
51829;BME280;37881;48.024;8.774;2024-03-23T13:31:27;93506.44;;;8.87;81.50
51829;BME280;37881;48.024;8.774;2024-03-23T13:34:14;93494.63;;;8.94;81.08
51829;BME280;37881;48.024;8.774;2024-03-23T13:37:01;93501.97;;;8.46;77.68
51829;BME280;37881;48.024;8.774;2024-03-23T13:39:47;93483.06;;;8.83;75.94
51829;BME280;37881;48.024;8.774;2024-03-23T13:42:33;93489.66;;;9.56;73.21
51829;BME280;37881;48.024;8.774;2024-03-23T13:45:19;93489.06;;;9.68;71.53
51829;BME280;37881;48.024;8.774;2024-03-23T13:48:05;93486.50;;;9.57;70.16
51829;BME280;37881;48.024;8.774;2024-03-23T13:51:02;93493.50;;;9.38;71.53
51829;BME280;37881;48.024;8.774;2024-03-23T13:53:48;93481.94;;;9.51;70.24
51829;BME280;37881;48.024;8.774;2024-03-23T13:56:34;93479.28;;;9.24;68.97
51829;BME280;37881;48.024;8.774;2024-03-23T13:59:20;93473.16;;;8.92;71.16
51829;BME280;37881;48.024;8.774;2024-03-23T14:02:06;93475.97;;;8.85;71.51
51829;BME280;37881;48.024;8.774;2024-03-23T14:04:53;93469.16;;;8.97;69.19
51829;BME280;37881;48.024;8.774;2024-03-23T14:07:39;93475.50;;;8.67;73.52
51829;BME280;37881;48.024;8.774;2024-03-23T14:10:25;93480.28;;;8.01;74.76
51829;BME280;37881;48.024;8.774;2024-03-23T14:13:11;93472.66;;;8.16;80.18
51829;BME280;37881;48.024;8.774;2024-03-23T14:15:57;93468.41;;;8.15;78.32
51829;BME280;37881;48.024;8.774;2024-03-23T14:18:43;93467.00;;;7.69;81.62
51829;BME280;37881;48.024;8.774;2024-03-23T14:21:31;93466.78;;;8.17;81.15
51829;BME280;37881;48.024;8.774;2024-03-23T14:24:17;93466.25;;;8.57;78.50
51829;BME280;37881;48.024;8.774;2024-03-23T14:27:03;93454.09;;;8.31;77.22
51829;BME280;37881;48.024;8.774;2024-03-23T14:29:51;93443.75;;;8.73;75.74
51829;BME280;37881;48.024;8.774;2024-03-23T14:32:37;93439.03;;;9.20;75.30
51829;BME280;37881;48.024;8.774;2024-03-23T14:35:23;93430.97;;;8.90;74.67
51829;BME280;37881;48.024;8.774;2024-03-23T14:38:09;93439.47;;;8.45;76.23
51829;BME280;37881;48.024;8.774;2024-03-23T14:41:01;93428.53;;;8.95;72.59
51829;BME280;37881;48.024;8.774;2024-03-23T14:43:48;93422.97;;;8.99;71.70
51829;BME280;37881;48.024;8.774;2024-03-23T14:46:36;93416.56;;;8.86;71.18
51829;BME280;37881;48.024;8.774;2024-03-23T14:49:22;93418.88;;;8.64;67.63
51829;BME280;37881;48.024;8.774;2024-03-23T14:52:08;93430.19;;;8.66;68.49
51829;BME280;37881;48.024;8.774;2024-03-23T14:54:54;93420.06;;;8.63;65.61
51829;BME280;37881;48.024;8.774;2024-03-23T14:57:42;93427.69;;;8.20;65.36
51829;BME280;37881;48.024;8.774;2024-03-23T15:00:28;93430.94;;;8.12;62.92
51829;BME280;37881;48.024;8.774;2024-03-23T15:03:14;93433.88;;;8.55;64.37
51829;BME280;37881;48.024;8.774;2024-03-23T15:06:00;93429.41;;;8.89;61.09
51829;BME280;37881;48.024;8.774;2024-03-23T15:08:47;93434.75;;;8.72;61.10
51829;BME280;37881;48.024;8.774;2024-03-23T15:11:33;93410.72;;;8.33;62.26
51829;BME280;37881;48.024;8.774;2024-03-23T15:14:19;93435.81;;;8.28;61.17
51829;BME280;37881;48.024;8.774;2024-03-23T15:17:05;93432.31;;;8.27;63.39
51829;BME280;37881;48.024;8.774;2024-03-23T15:19:53;93435.47;;;8.22;60.50
51829;BME280;37881;48.024;8.774;2024-03-23T15:22:41;93415.84;;;8.04;63.40
51829;BME280;37881;48.024;8.774;2024-03-23T15:25:27;93429.75;;;8.13;64.45
51829;BME280;37881;48.024;8.774;2024-03-23T15:28:13;93426.91;;;7.93;65.93
51829;BME280;37881;48.024;8.774;2024-03-23T15:30:59;93430.13;;;8.15;69.13
51829;BME280;37881;48.024;8.774;2024-03-23T15:33:45;93430.34;;;8.55;70.32
51829;BME280;37881;48.024;8.774;2024-03-23T15:36:31;93424.84;;;8.82;69.40
51829;BME280;37881;48.024;8.774;2024-03-23T15:39:17;93421.94;;;8.42;68.79
51829;BME280;37881;48.024;8.774;2024-03-23T15:42:03;93412.69;;;8.32;68.93
51829;BME280;37881;48.024;8.774;2024-03-23T15:44:49;93413.88;;;8.04;70.65
51829;BME280;37881;48.024;8.774;2024-03-23T15:47:35;93418.00;;;8.16;69.86